Rechercher aéroport 
image banner adimage banner adimage banner ad
image banner ad

CN98 - Walter's Camp

Situé à Palo Verde, United States

ICAO - CN98, IATA -

Données fournies par Airmate  

Information générale

Coordonnées: N33°14'44" W114°42'37"
Élévation : 309 feet MSL.
 
Voir autres Aéroports à California

Données opérationnelles

Special qualification required
Heure actuelle UTC:
Heure actuelle locale:
Météo à : KBLH - Blythe ( 42 km )
TAF: KBLH 231120Z 2312/2412 17007KT P6SM FEW250 FM232000 18010G16KT P6SM FEW100 SCT150 SCT200 FM240500 16007KT P6SM SCT100 SCT150 BKN200
Voir NOTAMs / SUP AIP / TFR affectant cet aéroport [VIEW]
Fréquences de communication: [VIEW]

Pistes:

Identifiant RWYQFULongueur (ft)Largeur (ft)SurfaceLDA (ft)
06250050EARTH
24250050EARTH

Coordonnées de l'aéroport

Adresse: Palo Verde United States

Vue satellite de CN98